createdAt,value
2023-05-19T00:01:00.624Z,59.15
2023-05-19T00:03:29.312Z,59.09
2023-05-19T00:05:59.052Z,59.03
2023-05-19T00:08:34.135Z,59.09
2023-05-19T00:11:02.590Z,59.09
2023-05-19T00:13:31.262Z,59.08
2023-05-19T00:15:59.748Z,58.99
2023-05-19T00:18:29.954Z,59.14
2023-05-19T00:20:58.224Z,59.05
2023-05-19T00:23:26.373Z,59.07
2023-05-19T00:25:54.587Z,58.97
2023-05-19T00:28:23.191Z,58.93
2023-05-19T00:30:51.574Z,59.10
2023-05-19T00:33:19.790Z,58.94
2023-05-19T00:35:47.930Z,58.93
2023-05-19T00:38:16.085Z,59.06
2023-05-19T00:40:44.582Z,59.13
2023-05-19T00:43:13.372Z,59.14
2023-05-19T00:45:41.861Z,59.11
2023-05-19T00:48:10.176Z,59.13
2023-05-19T00:50:38.665Z,59.12
2023-05-19T00:53:07.408Z,59.09
2023-05-19T00:55:37.644Z,59.15
2023-05-19T00:58:06.631Z,59.14
2023-05-19T01:00:35.413Z,59.09
2023-05-19T01:03:11.442Z,59.13
2023-05-19T01:05:44.876Z,59.10
2023-05-19T01:08:13.609Z,59.37
2023-05-19T01:10:42.173Z,59.32
2023-05-19T01:13:11.285Z,59.27
2023-05-19T01:16:10.204Z,59.34
2023-05-19T01:18:45.304Z,59.43
2023-05-19T01:21:44.531Z,59.25
2023-05-19T01:24:33.816Z,59.37
2023-05-19T01:27:29.529Z,59.42
2023-05-19T01:30:25.613Z,59.25
2023-05-19T01:32:57.316Z,59.23
2023-05-19T01:35:26.373Z,59.42
2023-05-19T01:37:57.799Z,59.42
2023-05-19T01:40:28.091Z,59.50
2023-05-19T01:42:59.159Z,59.43
2023-05-19T01:45:32.637Z,59.23
2023-05-19T01:48:03.353Z,59.48
2023-05-19T01:50:33.301Z,59.40
2023-05-19T01:53:02.129Z,59.61
2023-05-19T01:55:30.441Z,59.56
2023-05-19T01:58:19.796Z,59.56
2023-05-19T02:00:56.866Z,59.67
2023-05-19T02:03:51.821Z,59.63
2023-05-19T02:06:36.224Z,59.60
2023-05-19T02:09:15.083Z,59.61
2023-05-19T02:11:56.453Z,59.60
2023-05-19T02:14:35.642Z,59.84
2023-05-19T02:17:05.022Z,59.73
2023-05-19T02:19:39.346Z,59.82
2023-05-19T02:22:07.568Z,59.77
2023-05-19T02:24:37.699Z,59.85
2023-05-19T02:27:06.265Z,59.86
2023-05-19T02:29:35.648Z,59.78
2023-05-19T02:32:04.213Z,59.91
2023-05-19T02:34:32.597Z,59.85
2023-05-19T02:37:01.504Z,59.83
2023-05-19T02:39:35.101Z,59.82
2023-05-19T02:42:03.450Z,59.80
2023-05-19T02:44:31.732Z,59.79
2023-05-19T02:46:59.918Z,59.87
2023-05-19T02:49:30.982Z,59.76
2023-05-19T02:51:59.059Z,59.92
2023-05-19T02:54:27.164Z,59.90
2023-05-19T02:56:55.397Z,59.90
2023-05-19T02:59:25.594Z,60.04
2023-05-19T03:02:00.030Z,59.95
2023-05-19T03:04:29.615Z,60.18
2023-05-19T03:06:57.902Z,60.09
2023-05-19T03:09:26.375Z,60.16
2023-05-19T03:11:54.562Z,60.27
2023-05-19T03:14:24.651Z,60.32
2023-05-19T03:16:53.317Z,60.30
2023-05-19T03:19:22.071Z,60.22
2023-05-19T03:21:50.304Z,60.46
2023-05-19T03:24:18.565Z,60.51
2023-05-19T03:26:46.763Z,60.23
2023-05-19T03:29:15.038Z,60.40
2023-05-19T03:31:43.323Z,60.52
2023-05-19T03:34:11.716Z,60.50
2023-05-19T03:36:40.271Z,60.47
2023-05-19T03:39:12.529Z,60.55
2023-05-19T03:41:40.819Z,60.62
2023-05-19T03:44:08.947Z,60.60
2023-05-19T03:46:37.163Z,60.71
2023-05-19T03:49:21.998Z,60.68
2023-05-19T03:51:59.160Z,60.45
2023-05-19T03:54:39.775Z,60.66
2023-05-19T03:57:07.969Z,60.70
2023-05-19T03:59:37.328Z,60.67
2023-05-19T04:02:05.723Z,60.72
2023-05-19T04:04:34.024Z,60.82
2023-05-19T04:07:02.757Z,60.63
2023-05-19T04:09:32.722Z,60.79
2023-05-19T04:12:04.461Z,60.70
2023-05-19T04:14:32.826Z,60.79
2023-05-19T04:17:01.136Z,60.73
2023-05-19T04:19:29.452Z,60.80
2023-05-19T04:21:57.686Z,60.81
2023-05-19T04:24:26.300Z,60.82
2023-05-19T04:26:54.595Z,60.94
2023-05-19T04:29:24.113Z,60.90
2023-05-19T04:31:52.857Z,60.90
2023-05-19T04:34:21.237Z,60.82
2023-05-19T04:36:51.036Z,60.81
2023-05-19T04:39:21.849Z,61.02
2023-05-19T04:41:50.456Z,60.94
2023-05-19T04:44:19.330Z,60.95
2023-05-19T04:46:50.240Z,60.78
2023-05-19T04:49:19.561Z,60.90
2023-05-19T04:51:51.113Z,61.14
2023-05-19T04:54:23.017Z,60.96
2023-05-19T04:56:52.438Z,60.86
2023-05-19T04:59:22.505Z,60.85
2023-05-19T05:01:50.893Z,60.83
2023-05-19T05:04:20.230Z,60.90
2023-05-19T05:06:48.933Z,60.94
2023-05-19T05:09:18.036Z,61.12
2023-05-19T05:11:46.922Z,60.89
2023-05-19T05:14:15.657Z,61.15
2023-05-19T05:16:44.727Z,61.08
2023-05-19T05:19:15.734Z,61.15
2023-05-19T05:21:44.319Z,60.91
2023-05-19T05:24:12.980Z,60.89
2023-05-19T05:26:43.024Z,61.19
2023-05-19T05:29:11.205Z,61.07
2023-05-19T05:31:39.366Z,61.03
2023-05-19T05:34:07.892Z,60.97
2023-05-19T05:36:36.302Z,60.96
2023-05-19T05:39:05.720Z,60.97
2023-05-19T05:41:35.625Z,61.02
2023-05-19T05:44:08.818Z,61.08
2023-05-19T05:46:37.709Z,61.09
2023-05-19T05:49:06.260Z,61.15
2023-05-19T05:51:35.093Z,61.04
2023-05-19T05:54:06.988Z,61.15
2023-05-19T05:56:41.273Z,61.04
2023-05-19T05:59:10.852Z,60.94
2023-05-19T06:01:39.188Z,61.04
2023-05-19T06:04:09.765Z,61.13
2023-05-19T06:06:39.162Z,61.06
2023-05-19T06:09:07.493Z,61.22
2023-05-19T06:11:36.093Z,61.19
2023-05-19T06:14:04.711Z,61.27
2023-05-19T06:16:59.625Z,60.94
2023-05-19T06:19:27.958Z,60.96
2023-05-19T06:21:56.109Z,60.97
2023-05-19T06:24:24.280Z,61.03
2023-05-19T06:26:52.678Z,61.15
2023-05-19T06:29:21.102Z,60.99
2023-05-19T06:31:49.820Z,61.12
2023-05-19T06:34:19.014Z,61.21
2023-05-19T06:36:47.982Z,61.19
2023-05-19T06:39:16.268Z,61.20
2023-05-19T06:41:44.736Z,61.18
2023-05-19T06:44:24.957Z,61.03
2023-05-19T06:46:53.169Z,61.39
2023-05-19T06:49:21.603Z,61.25
2023-05-19T06:51:50.112Z,61.08
2023-05-19T06:54:18.257Z,61.10
2023-05-19T06:56:46.590Z,61.26
2023-05-19T06:59:16.311Z,61.07
2023-05-19T07:01:46.007Z,61.15
2023-05-19T07:04:14.546Z,61.14
2023-05-19T07:06:42.803Z,60.97
2023-05-19T07:09:11.039Z,61.09
2023-05-19T07:11:40.542Z,60.87
2023-05-19T07:14:09.097Z,60.93
2023-05-19T07:16:37.462Z,60.91
2023-05-19T07:19:07.432Z,60.87
2023-05-19T07:21:35.984Z,60.89
2023-05-19T07:24:04.636Z,61.17
2023-05-19T07:26:32.922Z,60.96
2023-05-19T07:29:01.295Z,60.82
2023-05-19T07:31:29.508Z,61.20
2023-05-19T07:33:57.947Z,60.89
2023-05-19T07:36:26.276Z,61.07
2023-05-19T07:38:54.481Z,60.76
2023-05-19T07:41:23.190Z,60.70
2023-05-19T07:43:51.410Z,60.63
2023-05-19T07:46:19.725Z,60.62
2023-05-19T07:48:48.261Z,60.68
2023-05-19T07:51:16.662Z,60.71
2023-05-19T07:53:44.909Z,60.64
2023-05-19T07:56:13.163Z,60.57
2023-05-19T07:58:42.051Z,60.74
2023-05-19T08:01:10.223Z,60.67
2023-05-19T08:03:38.668Z,60.59
2023-05-19T08:06:06.904Z,60.42
2023-05-19T08:08:35.094Z,60.38
2023-05-19T08:11:04.510Z,60.48
2023-05-19T08:13:33.230Z,60.45
2023-05-19T08:16:01.483Z,60.27
2023-05-19T08:18:29.710Z,60.35
2023-05-19T08:20:57.892Z,60.41
2023-05-19T08:23:26.260Z,60.30
2023-05-19T08:25:54.405Z,60.22
2023-05-19T08:28:22.610Z,60.12
2023-05-19T08:30:52.628Z,60.16
2023-05-19T08:33:21.777Z,59.97
2023-05-19T08:35:50.005Z,59.91
2023-05-19T08:38:18.173Z,59.95
2023-05-19T08:40:48.495Z,59.92
2023-05-19T08:43:16.765Z,59.88
2023-05-19T08:45:48.460Z,59.83
2023-05-19T08:48:19.384Z,59.64
2023-05-19T08:50:56.920Z,59.55
2023-05-19T08:53:34.382Z,59.77
2023-05-19T08:56:11.393Z,59.66
2023-05-19T08:58:41.527Z,59.59
2023-05-19T09:01:19.667Z,59.79
2023-05-19T09:03:50.174Z,59.40
2023-05-19T09:06:18.856Z,59.48
2023-05-19T09:08:47.358Z,59.57
2023-05-19T09:11:16.186Z,59.37
2023-05-19T09:13:44.303Z,59.54
2023-05-19T09:16:13.425Z,59.39
2023-05-19T09:18:55.360Z,59.22
2023-05-19T09:21:33.231Z,59.42
2023-05-19T09:24:06.523Z,59.42
2023-05-19T09:26:38.751Z,59.24
2023-05-19T09:29:17.441Z,59.23
2023-05-19T09:31:50.740Z,59.20
2023-05-19T09:34:19.457Z,59.10
2023-05-19T09:36:52.037Z,59.04
2023-05-19T09:39:22.171Z,58.88
2023-05-19T09:41:55.045Z,59.11
2023-05-19T09:44:29.702Z,58.90
2023-05-19T09:46:58.879Z,58.72
2023-05-19T09:49:29.901Z,58.80
2023-05-19T09:51:59.701Z,58.69
2023-05-19T09:54:28.630Z,58.78
2023-05-19T09:57:05.175Z,58.74
2023-05-19T09:59:34.927Z,58.82
2023-05-19T10:02:03.921Z,58.60
2023-05-19T10:04:32.290Z,58.72
2023-05-19T10:07:05.768Z,58.77
2023-05-19T10:09:36.654Z,58.92
2023-05-19T10:12:06.559Z,58.79
2023-05-19T10:14:34.809Z,58.88
2023-05-19T10:17:03.887Z,59.00
2023-05-19T10:19:32.121Z,58.86
2023-05-19T10:22:00.321Z,58.94
2023-05-19T10:24:28.450Z,58.85
2023-05-19T10:27:16.866Z,58.89
2023-05-19T10:29:50.072Z,58.84
2023-05-19T10:32:26.922Z,58.85
2023-05-19T10:34:57.944Z,58.79
2023-05-19T10:37:27.228Z,58.64
2023-05-19T10:39:58.987Z,58.73
2023-05-19T10:42:38.293Z,58.81
2023-05-19T10:45:22.547Z,58.72
2023-05-19T10:47:52.001Z,58.77
2023-05-19T10:50:21.112Z,58.74
2023-05-19T10:52:56.520Z,58.79
2023-05-19T10:55:47.328Z,58.56
2023-05-19T10:58:15.717Z,58.63
2023-05-19T11:00:43.930Z,58.61
2023-05-19T11:03:16.610Z,58.56
2023-05-19T11:05:50.973Z,58.58
2023-05-19T11:08:33.706Z,58.65
2023-05-19T11:11:23.379Z,58.59
2023-05-19T11:13:53.317Z,58.69
2023-05-19T11:16:28.920Z,58.53
2023-05-19T11:18:59.725Z,58.42
2023-05-19T11:21:49.234Z,58.51
2023-05-19T11:24:50.627Z,58.32
2023-05-19T11:27:23.096Z,58.66
2023-05-19T11:29:52.078Z,58.72
2023-05-19T11:32:22.021Z,58.60
2023-05-19T11:34:50.481Z,58.68
2023-05-19T11:37:18.874Z,58.58
2023-05-19T11:39:47.604Z,58.59
2023-05-19T11:42:16.502Z,58.69
2023-05-19T11:44:48.450Z,58.52
2023-05-19T11:47:17.454Z,58.82
2023-05-19T11:49:48.336Z,58.68
2023-05-19T11:52:16.991Z,58.62
2023-05-19T11:54:48.796Z,58.46
2023-05-19T11:57:17.620Z,58.70
2023-05-19T11:59:48.060Z,58.64
2023-05-19T12:02:19.095Z,58.55
2023-05-19T12:04:48.393Z,58.51
2023-05-19T12:07:18.698Z,58.80
2023-05-19T12:09:47.428Z,58.46
2023-05-19T12:12:20.249Z,58.66
2023-05-19T12:14:51.065Z,58.56
2023-05-19T12:17:20.898Z,58.58
2023-05-19T12:19:50.546Z,58.52
2023-05-19T12:22:19.545Z,58.69
2023-05-19T12:24:48.411Z,58.73
2023-05-19T12:27:21.405Z,58.91
2023-05-19T12:29:58.357Z,59.16
2023-05-19T12:32:29.576Z,58.72
2023-05-19T12:34:58.152Z,58.77
2023-05-19T12:37:27.747Z,59.06
2023-05-19T12:39:56.608Z,59.00
2023-05-19T12:42:31.154Z,58.69
2023-05-19T12:45:02.952Z,58.78
2023-05-19T12:47:34.865Z,58.91
2023-05-19T12:50:04.433Z,59.03
2023-05-19T12:52:35.649Z,58.98
2023-05-19T12:55:07.207Z,59.43
2023-05-19T12:57:36.860Z,59.34
2023-05-19T13:00:14.198Z,59.43
2023-05-19T13:03:06.632Z,59.25
2023-05-19T13:05:39.376Z,59.16
2023-05-19T13:08:09.869Z,59.19
2023-05-19T13:10:40.171Z,59.22
2023-05-19T13:13:09.802Z,59.33
2023-05-19T13:15:40.949Z,59.37
2023-05-19T13:18:10.810Z,59.35
2023-05-19T13:20:40.809Z,59.51
2023-05-19T13:23:12.872Z,59.47
2023-05-19T13:25:42.240Z,59.39
2023-05-19T13:28:11.074Z,59.62
2023-05-19T13:30:41.058Z,59.69
2023-05-19T13:33:09.240Z,59.74
2023-05-19T13:35:37.961Z,59.90
2023-05-19T13:38:08.738Z,59.85
2023-05-19T13:40:37.089Z,60.12
2023-05-19T13:43:06.115Z,59.88
2023-05-19T13:45:34.868Z,60.12
2023-05-19T13:48:03.497Z,60.18
2023-05-19T13:50:31.771Z,60.28
2023-05-19T13:53:00.257Z,60.10
2023-05-19T13:55:28.540Z,60.04
2023-05-19T13:57:56.893Z,60.37
2023-05-19T14:00:25.270Z,60.33
2023-05-19T14:02:53.505Z,60.41
2023-05-19T14:05:21.947Z,60.47
2023-05-19T14:07:50.111Z,60.63
2023-05-19T14:10:18.381Z,60.59
2023-05-19T14:13:12.465Z,60.70
2023-05-19T14:15:37.923Z,60.88
2023-05-19T14:18:07.052Z,60.77
2023-05-19T14:20:36.160Z,60.92
2023-05-19T14:23:04.705Z,60.72
2023-05-19T14:25:32.949Z,60.81
2023-05-19T14:28:01.247Z,60.96
2023-05-19T14:30:29.500Z,60.95
2023-05-19T14:33:05.461Z,60.89
2023-05-19T14:35:33.690Z,61.00
2023-05-19T14:38:02.700Z,61.17
2023-05-19T14:40:31.095Z,61.33
2023-05-19T14:42:59.590Z,61.28
2023-05-19T14:45:27.806Z,61.46
2023-05-19T14:47:56.115Z,61.43
2023-05-19T14:50:24.284Z,61.39
2023-05-19T14:52:52.541Z,61.40
2023-05-19T14:55:20.913Z,61.47
2023-05-19T14:57:49.086Z,61.61
2023-05-19T15:00:18.124Z,61.48
2023-05-19T15:02:46.656Z,61.69
2023-05-19T15:05:15.087Z,61.52
2023-05-19T15:07:43.249Z,61.59
2023-05-19T15:10:11.626Z,61.74
2023-05-19T15:12:39.779Z,61.77
2023-05-19T15:15:08.559Z,61.95
2023-05-19T15:17:36.819Z,62.02
2023-05-19T15:20:05.518Z,62.01
2023-05-19T15:22:34.353Z,62.14
2023-05-19T15:25:02.607Z,62.11
2023-05-19T15:27:30.800Z,62.18
2023-05-19T15:29:58.917Z,62.11
2023-05-19T15:32:27.123Z,62.20
2023-05-19T15:34:55.291Z,62.22
2023-05-19T15:37:23.758Z,62.23
2023-05-19T15:39:51.981Z,62.39
2023-05-19T15:42:20.260Z,62.40
2023-05-19T15:44:48.535Z,62.23
2023-05-19T15:47:16.735Z,62.39
2023-05-19T15:49:44.921Z,62.37
2023-05-19T15:52:13.124Z,62.60
2023-05-19T15:54:41.216Z,62.37
2023-05-19T15:57:09.471Z,62.49
2023-05-19T15:59:37.602Z,62.55
2023-05-19T16:02:06.042Z,62.55
2023-05-19T16:04:34.264Z,62.52
2023-05-19T16:07:02.394Z,62.74
2023-05-19T16:09:30.544Z,62.74
2023-05-19T16:11:58.728Z,62.77
2023-05-19T16:14:31.079Z,62.78
2023-05-19T16:16:59.924Z,62.91
2023-05-19T16:19:28.399Z,62.84
2023-05-19T16:21:56.718Z,62.86
2023-05-19T16:24:25.031Z,62.86
2023-05-19T16:26:54.025Z,63.01
2023-05-19T16:29:22.396Z,63.05
2023-05-19T16:31:50.720Z,62.97
2023-05-19T16:34:18.982Z,63.10
2023-05-19T16:36:47.290Z,63.07
2023-05-19T16:39:15.844Z,63.08
2023-05-19T16:41:44.137Z,63.15
2023-05-19T16:44:14.655Z,63.18
2023-05-19T16:46:43.010Z,63.23
2023-05-19T16:49:11.517Z,63.17
2023-05-19T16:51:39.840Z,63.33
2023-05-19T16:54:08.089Z,63.23
2023-05-19T16:56:36.750Z,63.39
2023-05-19T16:59:04.959Z,63.31
2023-05-19T17:01:33.217Z,63.29
2023-05-19T17:04:01.408Z,63.36
2023-05-19T17:06:30.107Z,63.40
2023-05-19T17:08:58.455Z,63.48
2023-05-19T17:11:27.825Z,63.49
2023-05-19T17:13:56.191Z,63.35
2023-05-19T17:16:24.585Z,63.52
2023-05-19T17:18:52.807Z,63.51
2023-05-19T17:21:21.627Z,63.61
2023-05-19T17:23:49.916Z,63.55
2023-05-19T17:26:18.074Z,63.50
2023-05-19T17:28:46.331Z,63.64
2023-05-19T17:31:15.990Z,63.63
2023-05-19T17:33:44.244Z,63.66
2023-05-19T17:36:12.644Z,63.85
2023-05-19T17:38:42.023Z,63.89
2023-05-19T17:41:10.363Z,63.79
2023-05-19T17:43:39.985Z,63.64
2023-05-19T17:46:08.735Z,63.64
2023-05-19T17:48:36.887Z,63.71
2023-05-19T17:51:07.124Z,63.74
2023-05-19T17:53:35.848Z,63.91
2023-05-19T17:56:07.097Z,63.78
2023-05-19T17:58:35.649Z,63.83
2023-05-19T18:01:04.025Z,63.90
2023-05-19T18:03:32.808Z,63.80
2023-05-19T18:06:01.770Z,63.83
2023-05-19T18:08:32.457Z,63.96
2023-05-19T18:11:01.235Z,64.10
2023-05-19T18:13:29.468Z,64.02
2023-05-19T18:15:59.811Z,64.08
2023-05-19T18:18:28.088Z,64.02
2023-05-19T18:20:56.249Z,64.15
2023-05-19T18:23:24.342Z,64.30
2023-05-19T18:25:53.469Z,64.17
2023-05-19T18:28:21.995Z,64.32
2023-05-19T18:31:00.988Z,64.27
2023-05-19T18:33:31.094Z,64.30
2023-05-19T18:35:59.820Z,64.35
2023-05-19T18:38:28.155Z,64.51
2023-05-19T18:40:56.876Z,64.44
2023-05-19T18:43:25.282Z,64.42
2023-05-19T18:45:53.473Z,64.48
2023-05-19T18:48:22.739Z,64.59
2023-05-19T18:50:51.580Z,64.63
2023-05-19T18:53:21.600Z,64.60
2023-05-19T18:55:49.983Z,64.69
2023-05-19T18:58:18.795Z,64.83
2023-05-19T19:00:47.206Z,64.69
2023-05-19T19:03:16.007Z,64.81
2023-05-19T19:05:45.367Z,64.62
2023-05-19T19:08:13.694Z,64.80
2023-05-19T19:10:42.642Z,64.76
2023-05-19T19:13:10.955Z,65.03
2023-05-19T19:15:39.850Z,65.03
2023-05-19T19:18:08.580Z,65.02
2023-05-19T19:20:36.848Z,65.02
2023-05-19T19:23:06.821Z,65.09
2023-05-19T19:25:35.310Z,64.88
2023-05-19T19:28:03.772Z,64.98
2023-05-19T19:30:32.151Z,64.99
2023-05-19T19:33:00.828Z,65.27
2023-05-19T19:35:29.118Z,65.27
2023-05-19T19:37:58.719Z,65.21
2023-05-19T19:40:26.973Z,65.35
2023-05-19T19:42:55.250Z,65.26
2023-05-19T19:45:23.510Z,65.16
2023-05-19T19:47:51.918Z,65.37
2023-05-19T19:50:20.448Z,65.25
2023-05-19T19:52:48.620Z,65.29
2023-05-19T19:55:16.806Z,65.51
2023-05-19T19:57:47.230Z,65.42
2023-05-19T20:00:15.830Z,65.33
2023-05-19T20:03:02.647Z,65.45
2023-05-19T20:05:32.535Z,65.54
2023-05-19T20:08:00.814Z,65.61
2023-05-19T20:10:29.017Z,65.55
2023-05-19T20:12:59.024Z,65.66
2023-05-19T20:15:27.289Z,65.63
2023-05-19T20:17:55.751Z,65.67
2023-05-19T20:20:24.061Z,65.74
2023-05-19T20:22:52.373Z,65.68
2023-05-19T20:25:21.029Z,65.87
2023-05-19T20:27:49.234Z,65.86
2023-05-19T20:30:17.492Z,65.71
2023-05-19T20:32:46.936Z,65.91
2023-05-19T20:35:16.003Z,66.01
2023-05-19T20:37:44.262Z,65.90
2023-05-19T20:40:12.892Z,66.00
2023-05-19T20:42:41.364Z,65.92
2023-05-19T20:45:09.762Z,65.93
2023-05-19T20:47:38.443Z,65.97
2023-05-19T20:50:06.988Z,66.21
2023-05-19T20:52:35.225Z,66.01
2023-05-19T20:55:03.758Z,66.04
2023-05-19T20:57:32.041Z,66.07
2023-05-19T21:00:00.290Z,66.14
2023-05-19T21:02:28.451Z,66.14
2023-05-19T21:04:56.696Z,66.12
2023-05-19T21:07:25.055Z,66.22
2023-05-19T21:09:54.516Z,66.23
2023-05-19T21:12:25.364Z,66.26
2023-05-19T21:14:53.959Z,66.50
2023-05-19T21:17:22.242Z,66.24
2023-05-19T21:19:52.788Z,66.27
2023-05-19T21:22:20.902Z,66.37
2023-05-19T21:24:49.018Z,66.43
2023-05-19T21:27:17.179Z,66.39
2023-05-19T21:29:45.532Z,66.42
2023-05-19T21:32:13.802Z,66.36
2023-05-19T21:34:41.908Z,66.45
2023-05-19T21:37:10.013Z,66.39
2023-05-19T21:39:38.521Z,66.42
2023-05-19T21:42:06.686Z,66.60
2023-05-19T21:44:34.897Z,66.63
2023-05-19T21:47:03.251Z,66.54
2023-05-19T21:49:31.537Z,66.65
2023-05-19T21:51:59.768Z,66.44
2023-05-19T21:54:28.099Z,66.63
2023-05-19T21:56:56.272Z,66.51
2023-05-19T21:59:24.931Z,66.62
2023-05-19T22:01:53.541Z,66.59
2023-05-19T22:04:22.663Z,66.53
2023-05-19T22:06:51.189Z,66.51
2023-05-19T22:09:20.396Z,66.68
2023-05-19T22:11:48.502Z,66.49
2023-05-19T22:14:16.859Z,66.64
2023-05-19T22:16:45.096Z,66.52
2023-05-19T22:19:13.536Z,66.57
2023-05-19T22:21:41.695Z,66.67
2023-05-19T22:24:09.812Z,66.60
2023-05-19T22:26:42.594Z,66.53
2023-05-19T22:29:15.223Z,66.50
2023-05-19T22:31:43.472Z,66.71
2023-05-19T22:34:12.898Z,66.73
2023-05-19T22:36:44.143Z,66.58
2023-05-19T22:39:15.133Z,66.52
2023-05-19T22:41:43.678Z,66.71
2023-05-19T22:44:16.166Z,66.52
2023-05-19T22:46:44.795Z,66.44
2023-05-19T22:49:13.059Z,66.44
2023-05-19T22:51:41.217Z,66.43
2023-05-19T22:54:10.589Z,66.56
2023-05-19T22:56:38.783Z,66.70
2023-05-19T22:59:07.074Z,66.69
2023-05-19T23:01:35.314Z,66.78
2023-05-19T23:04:04.027Z,66.76
2023-05-19T23:06:32.458Z,66.64
2023-05-19T23:09:02.378Z,66.73
2023-05-19T23:11:30.806Z,66.51
2023-05-19T23:13:59.088Z,66.68
2023-05-19T23:16:27.182Z,66.72
2023-05-19T23:18:55.616Z,66.72
2023-05-19T23:21:23.798Z,66.51
2023-05-19T23:23:52.121Z,66.43
2023-05-19T23:26:21.931Z,66.60
2023-05-19T23:28:50.660Z,66.38
2023-05-19T23:31:18.785Z,66.54
2023-05-19T23:33:47.015Z,66.49
2023-05-19T23:36:16.298Z,66.49
2023-05-19T23:38:44.632Z,66.63
2023-05-19T23:41:12.957Z,66.17
2023-05-19T23:43:41.191Z,66.61
2023-05-19T23:46:09.408Z,66.54
2023-05-19T23:48:37.735Z,66.37
2023-05-19T23:51:06.044Z,66.45
2023-05-19T23:53:34.158Z,66.38
2023-05-19T23:56:02.338Z,66.45
2023-05-19T23:58:30.503Z,66.55
